Latest Weather Observations for Glen Innes Airport

IDN60801

Issued at 4:32 pm EST Tuesday 28 April 2015 (issued every 30 minutes, with the page automatically refreshed every 10 minutes)

About weather observations | Map of weather stations | Latest weather observations for NSW | Other Formats
Station Details ID: 056243 Name: GLEN INNES AIRPORT AWS Lat: -29.68 Lon: 151.69 Height: 1044.3 m
Data from the previous 72 hours. | See also: Recent months for locations in New South Wales
Date/Time
EST
Temp
°C
App
Temp
°C
Dew
Point
Rel
Hum
%
Delta-T
°C
Wind Press
QNH
hPa
Press
MSL
hPa
Rain
since 9 am
mm
Dir
 
Spd
km/h
Gust
km/h
Spd
kts
Gust
kts
28/04:30pm 15.8 12.3 1.5 38 6.6 NE 9 11 5 6 1023.0 1020.1 0.0
28/04:00pm 16.2 12.7 1.5 37 6.9 NE 9 13 5 7 1022.8 1019.9 0.0
28/03:30pm 16.6 13.3 2.6 39 6.7 N 9 15 5 8 1022.7 1019.7 0.0
28/03:00pm 15.0 13.1 2.9 44 5.8 WNW 2 7 1 4 1022.8 1019.9 0.0
28/02:30pm 14.9 12.0 2.4 43 5.9 NNE 7 9 4 5 1022.7 1019.7 0.0
28/02:00pm 16.2 12.3 3.3 42 6.2 NNE 13 19 7 10 1022.7 1019.7 0.0
28/01:30pm 15.3 11.9 2.1 41 6.2 NW 9 17 5 9 1022.9 1020.0 0.0
28/01:00pm 16.3 13.5 3.0 41 6.4 N 7 13 4 7 1023.3 1020.3 0.0
28/12:30pm 15.7 11.5 1.8 39 6.5 WNW 13 20 7 11 1023.6 1020.6 0.0
28/12:00pm 15.6 12.4 3.1 43 6.0 NNW 9 17 5 9 1024.1 1021.2 0.0
28/11:30am 15.5 12.7 5.1 50 5.2 NE 9 19 5 10 1024.5 1021.6 0.0
28/11:00am 14.5 11.3 5.0 53 4.7 NNE 11 17 6 9 1024.7 1021.8 0.0
28/10:30am 14.2 10.5 4.2 51 4.9 N 13 20 7 11 1025.0 1022.1 0.0
28/10:00am 13.8 10.7 5.4 57 4.2 N 11 20 6 11 1025.1 1022.2 0.0
28/09:30am 13.0 10.6 7.0 67 3.1 NNE 9 15 5 8 1025.0 1022.1 0.0
28/09:00am 11.7 9.7 8.7 82 1.6 E 9 13 5 7 1025.0 1022.1 0.2
28/08:30am 9.3 6.5 8.4 94 0.5 ESE 13 17 7 9 1024.9 1022.0 0.2
28/08:00am 6.7 4.2 6.4 98 0.1 E 9 11 5 6 1024.6 1021.7 0.2
28/07:30am 4.4 1.4 4.1 98 0.1 E 9 13 5 7 1024.4 1021.4 0.2
28/07:00am 1.1 -2.1 0.8 98 0.1 ESE 7 9 4 5 1023.9 1021.0 0.0
28/06:30am 0.5 -2.8 0.2 98 0.1 ESE 7 9 4 5 1023.7 1020.8 0.0
28/06:00am 0.2 -3.1 -0.2 97 0.2 ESE 7 9 4 5 1023.4 1020.4 0.0
28/05:30am 0.6 -3.1 0.2 97 0.2 ESE 9 11 5 6 1023.0 1020.1 0.0
28/05:00am 0.5 -3.2 0.1 97 0.2 E 9 13 5 7 1022.7 1019.7 0.0
28/04:30am 0.6 -3.1 0.0 96 0.2 ESE 9 9 5 5 1022.4 1019.4 0.0
28/04:00am 0.8 -2.5 0.2 96 0.2 ESE 7 9 4 5 1022.3 1019.3 0.0
28/03:30am 0.9 -2.7 0.3 96 0.2 E 9 9 5 5 1022.2 1019.2 0.0
28/03:00am 0.6 -3.1 -0.1 95 0.3 SE 9 9 5 5 1022.0 1019.1 0.0
28/02:30am 1.1 -2.9 0.4 95 0.3 SE 11 15 6 8 1022.0 1019.1 0.0
28/02:00am 1.0 -3.1 -0.1 92 0.4 E 11 13 6 7 1022.2 1019.2 0.0
28/01:30am 1.3 -2.0 0.3 93 0.4 ESE 7 9 4 5 1022.2 1019.2 0.0
28/01:00am 1.0 -2.3 0.3 95 0.3 SE 7 9 4 5 1022.3 1019.3 0.0
28/12:30am 0.6 -3.1 -0.3 94 0.3 ESE 9 11 5 6 1022.2 1019.2 0.0
28/12:00am 0.8 -3.3 0.1 95 0.3 SE 11 13 6 7 1022.5 1019.5 0.0
 
Date/Time
EST
Temp
°C
App
Temp
°C
Dew
Point
Rel
Hum
%
Delta-T
°C
Wind Press
QNH
hPa
Press
MSL
hPa
Rain
since 9 am
mm
Dir
 
Spd
km/h
Gust
km/h
Spd
kts
Gust
kts
27/11:30pm 0.8 -3.0 -0.6 90 0.5 SE 9 13 5 7 1022.5 1019.5 0.0
27/11:00pm 1.0 -2.8 -0.5 90 0.6 SE 9 9 5 5 1022.6 1019.6 0.0
27/10:30pm 1.4 -3.0 0.1 91 0.5 SSE 13 13 7 7 1022.8 1019.9 0.0
27/10:00pm 2.1 -1.5 0.5 89 0.6 SE 9 11 5 6 1022.8 1019.9 0.0
27/09:30pm 3.1 1.0 1.5 89 0.7 SSE 2 9 1 5 1022.5 1019.5 0.0
27/09:00pm 2.6 -1.7 0.7 87 0.8 SSE 13 13 7 7 1022.2 1019.2 0.0
27/08:30pm 3.3 -0.6 1.2 86 0.9 E 11 13 6 7 1022.0 1019.1 0.0
27/08:00pm 4.1 1.0 1.5 83 1.1 SSW 7 9 4 5 1021.5 1018.5 0.0
27/07:30pm 6.3 3.1 2.9 79 1.5 WSW 9 11 5 6 1021.5 1018.5 0.0
27/07:00pm 6.6 3.0 2.9 77 1.6 W 11 13 6 7 1021.3 1018.3 0.0
27/06:30pm 7.9 4.4 3.4 73 2.0 W 11 15 6 8 1020.9 1017.9 0.0
27/06:00pm 8.3 4.8 3.4 71 2.2 W 11 13 6 7 1020.6 1017.6 0.0
27/05:30pm 10.1 6.2 3.4 63 3.1 WSW 13 15 7 8 1020.2 1017.1 0.0
27/05:00pm 13.1 9.2 3.5 52 4.6 W 13 17 7 9 1019.8 1016.8 0.0
27/04:30pm 14.3 9.8 1.9 43 5.8 WSW 15 20 8 11 1019.5 1016.5 0.0
27/04:00pm 14.9 9.9 1.4 40 6.2 WSW 17 22 9 12 1019.4 1016.4 0.0
27/03:30pm 15.3 9.8 0.7 37 6.7 WSW 19 24 10 13 1019.2 1016.1 0.0
27/03:00pm 15.4 10.4 1.2 38 6.5 WSW 17 26 9 14 1019.2 1016.1 0.0
27/02:30pm 15.1 10.0 3.0 44 5.8 W 19 30 10 16 1019.2 1016.1 0.0
27/02:00pm 15.2 9.9 1.7 40 6.3 W 19 28 10 15 1019.1 1016.0 0.0
27/01:30pm 14.9 9.9 3.4 46 5.5 W 19 26 10 14 1019.1 1016.0 0.0
27/01:00pm 14.4 9.2 3.5 48 5.2 W 20 32 11 17 1019.2 1016.1 0.0
27/12:30pm 14.6 10.5 4.3 50 5.0 WSW 15 24 8 13 1019.4 1016.4 0.0
27/12:00pm 14.0 10.0 6.8 62 3.7 WSW 17 24 9 13 1019.7 1016.7 0.0
27/11:30am 13.3 9.4 5.2 58 4.0 W 15 22 8 12 1020.3 1017.3 0.0
27/11:00am 13.0 8.8 5.9 62 3.5 W 17 22 9 12 1020.5 1017.5 0.0
27/10:30am 12.5 8.8 6.1 65 3.2 W 15 22 8 12 1020.8 1017.8 0.0
27/10:00am 11.3 7.9 6.0 70 2.6 WSW 13 24 7 13 1020.9 1017.9 0.0
27/09:30am 10.2 7.7 6.4 77 1.9 W 9 15 5 8 1020.9 1017.9 0.0
27/09:00am 9.3 7.1 6.2 81 1.5 NW 7 9 4 5 1020.8 1017.8 0.0
27/08:30am 6.9 5.5 5.4 90 0.7 W 2 7 1 4 1020.7 1017.7 0.0
27/08:00am 5.4 4.3 5.1 98 0.1 CALM 0 0 0 0 1020.5 1017.5 0.0
27/07:30am 2.7 0.0 2.6 99 0.0 SSE 6 6 3 3 1020.0 1017.0 0.0
27/07:00am -0.1 -3.5 -0.4 98 0.1 SE 7 9 4 5 1019.6 1016.6 0.0
27/06:30am -0.6 -4.0 -0.9 98 0.1 SSE 7 9 4 5 1019.2 1016.1 0.0
27/06:00am -0.2 -3.4 -0.5 98 0.1 SE 6 7 3 4 1018.7 1015.7 0.0
27/05:30am -0.9 -4.2 -1.2 98 0.1 SE 6 6 3 3 1018.3 1015.2 0.0
27/05:00am -0.5 -2.6 -0.8 98 0.1 CALM 0 0 0 0 1018.1 1015.0 0.0
27/04:30am 0.2 -1.8 -0.2 97 0.2 CALM 0 2 0 1 1017.9 1014.9 0.0
27/04:00am 0.4 -1.6 0.0 97 0.2 CALM 0 0 0 0 1017.6 1014.5 0.0
27/03:30am 0.8 -1.2 0.2 96 0.2 CALM 0 0 0 0 1017.4 1014.3 0.0
27/03:00am 1.3 -1.8 0.3 93 0.4 NNE 6 7 3 4 1017.7 1014.7 0.0
27/02:30am 2.1 -0.1 1.1 93 0.4 WSW 2 9 1 5 1017.8 1014.8 0.0
27/02:00am 3.8 1.0 3.2 96 0.3 SW 7 11 4 6 1017.9 1014.9 0.0
27/01:30am 3.6 0.4 2.9 95 0.3 W 9 15 5 8 1017.9 1014.9 0.0
27/01:00am 4.0 1.2 3.1 94 0.4 W 7 13 4 7 1018.1 1015.0 0.0
27/12:30am 3.7 0.4 2.4 91 0.6 W 9 13 5 7 1018.3 1015.2 0.0
27/12:00am 4.6 1.9 2.8 88 0.8 WNW 6 9 3 5 1018.5 1015.5 0.0
 
Date/Time
EST
Temp
°C
App
Temp
°C
Dew
Point
Rel
Hum
%
Delta-T
°C
Wind Press
QNH
hPa
Press
MSL
hPa
Rain
since 9 am
mm
Dir
 
Spd
km/h
Gust
km/h
Spd
kts
Gust
kts
26/11:30pm 5.9 2.4 3.6 85 1.0 WSW 11 13 6 7 1018.7 1015.7 0.0
26/11:00pm 7.3 4.3 3.9 79 1.6 WSW 9 15 5 8 1018.5 1015.5 0.0
26/10:30pm 8.1 4.0 4.5 78 1.7 SSW 15 22 8 12 1018.8 1015.8 0.0
26/10:00pm 8.3 3.8 4.3 76 1.9 SW 17 22 9 12 1018.7 1015.7 0.0
26/09:30pm 8.2 4.2 4.8 79 1.6 SW 15 20 8 11 1018.5 1015.5 0.0
26/09:00pm 8.0 4.0 4.9 81 1.5 SW 15 19 8 10 1018.1 1015.0 0.0
26/08:30pm 8.2 3.9 5.1 81 1.5 SW 17 30 9 16 1017.8 1014.8 0.0
26/08:00pm 8.0 3.2 4.8 80 1.5 WSW 19 28 10 15 1017.4 1014.3 0.0
26/07:30pm 8.4 0.9 4.6 77 1.8 W 33 43 18 23 1016.8 1013.8 0.0
26/07:00pm 8.3 1.3 4.3 76 1.9 W 30 39 16 21 1017.0 1013.9 0.0
26/06:30pm 8.7 1.7 4.1 73 2.1 WSW 30 37 16 20 1016.8 1013.8 0.0
26/06:00pm 9.4 2.8 4.0 69 2.5 WSW 28 37 15 20 1016.5 1013.4 0.0
26/05:30pm 9.6 3.7 3.8 67 2.7 WSW 24 33 13 18 1016.1 1013.0 0.0
26/05:00pm 9.8 3.1 3.8 66 2.8 WSW 28 37 15 20 1015.8 1012.7 0.0
26/04:30pm 10.4 4.3 3.0 60 3.4 WSW 24 35 13 19 1015.6 1012.5 0.0
26/04:00pm 10.6 5.0 5.2 69 2.6 WSW 24 35 13 19 1015.2 1012.1 0.0
26/03:30pm 11.2 4.7 4.9 65 3.0 W 28 41 15 22 1014.7 1011.6 0.0
26/03:23pm 11.2 3.9 4.7 64 3.1 W 32 50 17 27 1014.7 1011.6 0.0
26/03:00pm 11.5 4.2 4.7 63 3.3 WSW 32 48 17 26 1014.0 1010.8 0.0
26/02:30pm 10.8 3.0 4.7 66 2.9 WSW 35 48 19 26 1013.9 1010.7 0.0
26/02:00pm 11.5 3.1 5.4 66 3.0 W 39 50 21 27 1013.6 1010.5 0.0
26/01:30pm 11.8 4.2 5.7 66 3.0 W 35 46 19 25 1013.7 1010.6 0.0
26/01:00pm 10.1 2.6 4.5 68 2.7 W 33 46 18 25 1013.7 1010.6 0.0
26/12:41pm 10.5 2.8 5.5 71 2.4 WSW 35 54 19 29 1013.7 1010.6 0.0
26/12:30pm 9.7 1.0 4.3 69 2.5 W 39 52 21 28 1013.9 1010.7 0.0
26/12:00pm 9.3 0.5 3.5 67 2.7 W 39 50 21 27 1013.9 1010.7 0.0
26/11:30am 9.0 1.6 4.2 72 2.2 WSW 32 43 17 23 1014.1 1010.9 0.0
26/11:00am 9.4 1.9 4.4 71 2.4 WSW 33 52 18 28 1014.3 1011.2 0.0
26/10:33am 8.6 1.2 3.8 72 2.2 W 32 50 17 27 1014.0 1010.8 0.0
26/10:30am 8.7 1.2 4.3 74 2.1 W 33 46 18 25 1014.0 1010.8 0.0
26/10:00am 8.6 0.9 5.2 79 1.6 W 35 50 19 27 1014.0 1010.8 0.0
26/09:30am 7.5 -0.8 4.3 80 1.5 W 37 48 20 26 1013.7 1010.6 0.0
26/09:06am 7.1 -0.3 3.9 80 1.5 W 32 50 17 27 1013.6 1010.5 0.0
26/09:00am 7.0 -1.4 3.6 79 1.5 W 37 50 20 27 1013.6 1010.5 0.0
26/08:30am 6.7 -1.4 3.5 80 1.4 W 35 46 19 25 1013.1 1009.9 0.0
26/08:18am 6.4 -1.2 3.7 83 1.2 W 33 52 18 28 1012.9 1009.7 0.0
26/08:00am 6.6 -1.4 3.9 83 1.2 W 35 44 19 24 1012.6 1009.5 0.0
26/07:30am 5.4 -2.3 3.6 88 0.8 W 33 44 18 24 1012.9 1009.7 0.0
26/07:00am 5.2 -2.5 2.4 82 1.2 WNW 32 39 17 21 1012.4 1009.2 0.0
26/06:30am 5.0 -2.4 1.7 79 1.4 W 30 43 16 23 1011.9 1008.7 0.0
26/06:00am 5.6 -0.2 2.1 78 1.5 WNW 22 28 12 15 1011.5 1008.3 0.0
26/05:30am 6.5 0.4 2.6 76 1.7 W 24 33 13 18 1011.6 1008.4 0.0
26/05:00am 6.1 0.7 2.7 79 1.5 W 20 28 11 15 1011.5 1008.3 0.0
26/04:30am 6.3 0.6 2.6 77 1.6 WNW 22 30 12 16 1011.3 1008.1 0.0
26/04:00am 6.1 0.6 2.0 75 1.8 WNW 20 24 11 13 1011.2 1008.0 0.0
26/03:30am 6.4 0.5 1.9 73 2.0 W 22 30 12 16 1011.2 1008.0 0.0
26/03:00am 7.4 0.8 1.9 68 2.4 W 26 39 14 21 1010.9 1007.7 0.0
26/02:30am 7.7 1.5 2.2 68 2.4 W 24 37 13 20 1010.9 1007.7 0.0
26/02:00am 6.8 1.6 2.3 73 2.0 W 19 20 10 11 1011.1 1007.9 0.0
26/01:30am 7.1 2.6 2.2 71 2.2 W 15 17 8 9 1011.4 1008.2 0.0
26/01:00am 8.0 3.3 2.9 70 2.3 W 17 24 9 13 1011.5 1008.3 0.0
26/12:30am 9.1 4.0 3.1 66 2.7 WNW 19 22 10 12 1011.7 1008.6 0.0
26/12:00am 8.4 4.5 3.5 71 2.3 WNW 13 17 7 9 1011.9 1008.7 0.0
 
Date/Time
EST
Temp
°C
App
Temp
°C
Dew
Point
Rel
Hum
%
Delta-T
°C
Wind Press
QNH
hPa
Press
MSL
hPa
Rain
since 9 am
mm
Dir
 
Spd
km/h
Gust
km/h
Spd
kts
Gust
kts
25/11:30pm 9.1 4.8 3.5 68 2.6 W 15 19 8 10 1012.1 1008.9 0.0
25/11:00pm 9.9 5.3 3.9 66 2.8 W 17 24 9 13 1012.4 1009.2 0.0
25/10:30pm 9.7 5.1 3.7 66 2.8 W 17 19 9 10 1012.6 1009.5 0.0
25/10:00pm 10.8 6.2 3.6 61 3.4 W 17 26 9 14 1013.0 1009.8 0.0
25/09:30pm 11.5 6.6 4.3 61 3.4 WNW 19 22 10 12 1013.2 1010.0 0.0
25/09:00pm 11.3 6.9 4.5 63 3.3 WNW 17 20 9 11 1013.2 1010.0 0.0
25/08:30pm 11.2 6.7 4.4 63 3.3 NW 17 19 9 10 1013.0 1009.8 0.0
25/08:00pm 11.7 7.2 4.2 60 3.6 WNW 17 22 9 12 1012.9 1009.7 0.0
25/07:30pm 11.7 7.7 4.9 63 3.3 WNW 15 17 8 9 1012.6 1009.5 0.0
25/07:00pm 11.0 7.0 4.9 66 2.9 WNW 15 19 8 10 1012.3 1009.1 0.0
25/06:30pm 10.5 6.7 4.0 64 3.1 NW 13 15 7 8 1012.0 1008.8 0.0
25/06:00pm 12.2 8.5 4.7 60 3.6 NW 13 15 7 8 1011.7 1008.6 0.0
25/05:30pm 13.9 9.8 4.2 52 4.7 NW 15 19 8 10 1011.6 1008.4 0.0
25/05:00pm 15.9 11.4 4.0 45 5.9 NW 17 22 9 12 1011.4 1008.2 0.0

Other Formats:

Comma delimited format used in spreadsheet applications
http://www.bom.gov.au/fwo/IDN60801/IDN60801.94588.axf

JavaScript Object Notation format (JSON) in row-major order
http://www.bom.gov.au/fwo/IDN60801/IDN60801.94588.json